createdAt,value
2019-01-05T00:04:34.363Z,65.70
2019-01-05T00:10:08.722Z,63.10
2019-01-05T00:15:32.038Z,73.63
2019-01-05T00:20:55.830Z,61.70
2019-01-05T00:26:18.630Z,63.20
2019-01-05T00:31:41.446Z,63.50
2019-01-05T00:37:18.984Z,64.63
2019-01-05T00:42:34.447Z,58.83
2019-01-05T00:48:19.077Z,65.37
2019-01-05T00:53:43.170Z,67.33
2019-01-05T00:59:06.538Z,72.60
2019-01-05T01:04:33.491Z,59.40
2019-01-05T01:09:56.397Z,57.83
2019-01-05T01:15:19.002Z,63.20
2019-01-05T01:21:01.327Z,75.57
2019-01-05T01:26:40.567Z,103.53
2019-01-05T01:31:53.339Z,102.73
2019-01-05T01:37:10.877Z,77.40
2019-01-05T01:42:40.183Z,139.83
2019-01-05T01:48:06.132Z,104.13
2019-01-05T01:53:36.985Z,97.70
2019-01-05T01:59:03.336Z,152.17
2019-01-05T02:04:26.434Z,102.40
2019-01-05T02:09:54.736Z,87.00
2019-01-05T02:15:21.251Z,115.00
2019-01-05T02:21:04.958Z,133.90
2019-01-05T02:27:32.890Z,123.60
2019-01-05T02:33:27.591Z,151.40
2019-01-05T02:39:28.634Z,193.17
2019-01-05T02:45:23.409Z,219.70
2019-01-05T02:51:41.550Z,126.37
2019-01-05T02:57:45.595Z,160.83
2019-01-05T03:03:36.841Z,147.37
2019-01-05T03:09:39.572Z,231.73
2019-01-05T03:15:31.647Z,175.40
2019-01-05T03:21:44.161Z,139.67
2019-01-05T03:27:55.451Z,129.67
2019-01-05T03:34:17.699Z,209.30
2019-01-05T03:40:18.426Z,271.03
2019-01-05T03:46:11.000Z,204.93
2019-01-05T03:52:22.415Z,206.27
2019-01-05T03:58:27.828Z,152.70
2019-01-05T04:04:15.092Z,138.43
2019-01-05T04:10:32.751Z,140.47
2019-01-05T04:16:48.166Z,148.93
2019-01-05T04:22:28.004Z,176.73
2019-01-05T04:28:27.921Z,235.10
2019-01-05T04:34:42.753Z,174.33
2019-01-05T04:40:55.467Z,163.87
2019-01-05T04:47:15.230Z,221.87
2019-01-05T04:53:23.300Z,206.90
2019-01-05T04:59:13.066Z,192.77
2019-01-05T05:05:11.875Z,154.33
2019-01-05T05:11:09.767Z,159.40
2019-01-05T05:17:16.352Z,228.67
2019-01-05T05:23:25.695Z,98.93
2019-01-05T05:29:28.911Z,68.40
2019-01-05T05:35:19.272Z,147.83
2019-01-05T05:41:38.007Z,34.03
2019-01-05T05:47:39.505Z,82.03
2019-01-05T05:53:52.199Z,42.80
2019-01-05T05:59:57.441Z,70.73
2019-01-05T06:05:46.480Z,41.00
2019-01-05T06:11:39.676Z,99.70
2019-01-05T06:17:53.270Z,62.87
2019-01-05T06:24:08.950Z,26.90
2019-01-05T06:30:00.606Z,22.73
2019-01-05T06:36:23.215Z,24.67
2019-01-05T06:42:35.438Z,38.47
2019-01-05T06:48:54.114Z,53.57
2019-01-05T06:55:09.387Z,28.37
2019-01-05T07:01:35.503Z,58.43
2019-01-05T07:07:45.299Z,38.57
2019-01-05T07:13:42.378Z,40.47
2019-01-05T07:20:17.312Z,39.17
2019-01-05T07:26:29.102Z,79.80
2019-01-05T07:32:42.701Z,79.23
2019-01-05T07:39:06.721Z,120.77
2019-01-05T07:45:08.307Z,155.37
2019-01-05T07:51:21.538Z,107.00
2019-01-05T07:57:17.201Z,123.40
2019-01-05T08:04:04.246Z,122.27
2019-01-05T08:10:07.115Z,110.93
2019-01-05T08:16:02.030Z,131.80
2019-01-05T08:22:20.691Z,104.80
2019-01-05T08:28:24.233Z,97.53
2019-01-05T08:34:30.672Z,113.00
2019-01-05T08:40:42.332Z,141.10
2019-01-05T08:46:40.757Z,124.53
2019-01-05T08:52:28.188Z,117.63
2019-01-05T08:58:41.590Z,101.07
2019-01-05T09:05:16.582Z,110.13
2019-01-05T09:11:30.537Z,121.77
2019-01-05T09:17:24.745Z,115.90
2019-01-05T09:23:28.115Z,96.83
2019-01-05T09:29:34.602Z,102.17
2019-01-05T09:35:49.446Z,124.00
2019-01-05T09:41:55.989Z,132.97
2019-01-05T09:47:45.843Z,146.67
2019-01-05T09:53:52.949Z,127.80
2019-01-05T09:59:50.842Z,128.73
2019-01-05T10:05:39.074Z,113.07
2019-01-05T10:11:46.331Z,110.43
2019-01-05T10:17:57.737Z,119.40
2019-01-05T10:24:32.499Z,123.10
2019-01-05T10:30:33.235Z,108.53
2019-01-05T10:36:25.115Z,124.93
2019-01-05T10:42:27.366Z,139.67
2019-01-05T10:48:39.938Z,91.03
2019-01-05T10:54:40.945Z,145.03
2019-01-05T11:00:32.395Z,118.43
2019-01-05T11:06:40.904Z,162.17
2019-01-05T11:13:16.041Z,223.73
2019-01-05T11:19:31.402Z,162.67
2019-01-05T11:25:39.302Z,175.83
2019-01-05T11:31:44.318Z,149.50
2019-01-05T11:37:49.759Z,141.37
2019-01-05T11:43:49.487Z,173.30
2019-01-05T11:49:50.629Z,170.33
2019-01-05T11:55:57.006Z,172.63
2019-01-05T12:02:19.517Z,152.23
2019-01-05T12:08:24.053Z,247.57
2019-01-05T12:14:36.428Z,203.27
2019-01-05T12:20:36.023Z,154.87
2019-01-05T12:26:39.706Z,200.83
2019-01-05T12:32:59.860Z,167.13
2019-01-05T12:39:03.335Z,183.27
2019-01-05T12:45:12.255Z,166.90
2019-01-05T12:51:25.962Z,169.23
2019-01-05T12:57:27.131Z,173.57
2019-01-05T13:03:22.257Z,184.07
2019-01-05T13:09:20.756Z,178.40
2019-01-05T13:15:18.347Z,178.03
2019-01-05T13:21:09.540Z,192.30
2019-01-05T13:27:25.455Z,179.63
2019-01-05T13:33:39.583Z,192.63
2019-01-05T13:39:46.149Z,179.33
2019-01-05T13:45:59.383Z,167.60
2019-01-05T13:52:09.919Z,171.20
2019-01-05T13:57:34.827Z,175.87
2019-01-05T14:03:08.001Z,154.17
2019-01-05T14:08:29.582Z,135.87
2019-01-05T14:13:56.337Z,155.27
2019-01-05T14:19:19.109Z,125.00
2019-01-05T14:24:49.071Z,137.77
2019-01-05T14:30:11.883Z,140.50
2019-01-05T14:35:38.657Z,150.70
2019-01-05T14:41:08.530Z,144.60
2019-01-05T14:46:41.479Z,137.17
2019-01-05T14:52:11.360Z,143.03
2019-01-05T14:57:41.203Z,131.07
2019-01-05T15:03:04.400Z,142.73
2019-01-05T15:08:31.145Z,160.47
2019-01-05T15:13:58.104Z,176.23
2019-01-05T15:19:20.984Z,174.93
2019-01-05T15:24:46.339Z,150.77
2019-01-05T15:30:21.429Z,155.67
2019-01-05T15:35:45.428Z,136.20
2019-01-05T15:41:21.645Z,195.43
2019-01-05T15:46:45.604Z,162.87
2019-01-05T15:52:12.409Z,161.53
2019-01-05T15:57:39.343Z,146.80
2019-01-05T16:03:06.359Z,128.63
2019-01-05T16:08:26.667Z,114.80
2019-01-05T16:13:56.407Z,105.80
2019-01-05T16:19:20.392Z,140.63
2019-01-05T16:24:44.388Z,125.47
2019-01-05T16:30:05.630Z,144.10
2019-01-05T16:35:35.420Z,135.20
2019-01-05T16:40:58.048Z,124.80
2019-01-05T16:46:22.015Z,102.63
2019-01-05T16:51:45.418Z,110.90
2019-01-05T16:57:02.776Z,110.50
2019-01-05T17:02:35.732Z,103.63
2019-01-05T17:07:58.552Z,110.67
2019-01-05T17:13:24.896Z,99.87
2019-01-05T17:18:58.324Z,93.73
2019-01-05T17:24:21.167Z,92.87
2019-01-05T17:29:45.107Z,91.47
2019-01-05T17:35:09.601Z,102.20
2019-01-05T17:40:32.806Z,131.53
2019-01-05T17:45:59.974Z,79.47
2019-01-05T17:51:16.675Z,91.50
2019-01-05T17:56:43.605Z,90.13
2019-01-05T18:02:06.369Z,87.53
2019-01-05T18:07:29.170Z,70.27
2019-01-05T18:12:49.421Z,68.77
2019-01-05T18:18:13.257Z,66.83
2019-01-05T18:23:40.159Z,77.63
2019-01-05T18:29:02.976Z,70.57
2019-01-05T18:34:29.968Z,71.13
2019-01-05T18:40:03.012Z,62.27
2019-01-05T18:45:26.364Z,74.33
2019-01-05T18:50:59.176Z,72.97
2019-01-05T18:56:26.186Z,66.97
2019-01-05T19:01:48.974Z,72.87
2019-01-05T19:07:11.422Z,80.27
2019-01-05T19:12:50.673Z,69.50
2019-01-05T19:18:14.791Z,60.93
2019-01-05T19:23:54.002Z,67.50
2019-01-05T19:29:16.919Z,75.30
2019-01-05T19:34:39.655Z,66.17
2019-01-05T19:40:03.599Z,91.77
2019-01-05T19:45:43.213Z,66.87
2019-01-05T19:51:10.177Z,64.33
2019-01-05T19:56:40.033Z,80.80
2019-01-05T20:02:02.849Z,64.90
2019-01-05T20:07:35.844Z,56.03
2019-01-05T20:13:05.748Z,67.23
2019-01-05T20:18:33.113Z,76.63
2019-01-05T20:23:51.441Z,80.77
2019-01-05T20:29:13.988Z,74.07
2019-01-05T20:34:36.093Z,88.63
2019-01-05T20:40:00.067Z,85.60
2019-01-05T20:45:35.949Z,89.07
2019-01-05T20:51:06.017Z,85.50
2019-01-05T20:56:36.270Z,107.80
2019-01-05T21:02:18.544Z,81.13
2019-01-05T21:07:41.155Z,79.23
2019-01-05T21:13:03.695Z,87.70
2019-01-05T21:18:42.887Z,79.60
2019-01-05T21:24:05.543Z,82.00
2019-01-05T21:29:28.258Z,71.77
2019-01-05T21:34:51.019Z,70.17
2019-01-05T21:40:13.536Z,62.93
2019-01-05T21:45:43.522Z,78.20
2019-01-05T21:51:06.303Z,71.23
2019-01-05T21:56:28.938Z,65.33
2019-01-05T22:01:45.288Z,51.57
2019-01-05T22:07:18.323Z,62.10
2019-01-05T22:12:40.563Z,46.93
2019-01-05T22:18:22.723Z,55.37
2019-01-05T22:23:45.183Z,47.87
2019-01-05T22:29:08.257Z,48.23
2019-01-05T22:34:40.969Z,53.27
2019-01-05T22:39:59.781Z,48.23
2019-01-05T22:45:23.829Z,56.40
2019-01-05T22:50:42.150Z,57.67
2019-01-05T22:56:04.865Z,61.33
2019-01-05T23:01:28.420Z,52.93
2019-01-05T23:06:52.376Z,55.83
2019-01-05T23:12:14.936Z,59.17
2019-01-05T23:17:51.135Z,56.60
2019-01-05T23:23:13.591Z,51.77
2019-01-05T23:28:32.388Z,58.27
2019-01-05T23:33:54.883Z,65.83
2019-01-05T23:39:27.961Z,63.07
2019-01-05T23:44:50.853Z,57.03
2019-01-05T23:50:33.328Z,59.80
2019-01-05T23:56:03.285Z,67.40
